Ellen — SIDM — position and weather

sailwx.info

Track history (hours):
 
Tides and Currents Weather Stations Pressure Air Temp Water Temp Dewpoint Dewpoint Depression Visibility Wind Speed Wind Dir Waves Ship Positions

Ellen (Sweden)

Ship's website: http://www.syellen.org/Skolsegelfartyget_Ellen/Hem.html

Last reported at 2018-May-23 21:44 UTC. Time now 2018-May-23 22:26 UTC.
Position N 59°14' E 018°24'.

Length 22 m; draft 2.2 m.

Type: Sailing vessel. MMSI: 265508900.

Date/timePositionNaut miles runAvg speedWind from/ knotsBaromVisibWave heightAir tempDewpointWater temp
2018-May-23 21:44N 59°14' E 018°24'0 0.0
2018-May-23 21:26N 59°14' E 018°24'0 0.0
2018-May-23 20:32N 59°14' E 018°24'0 0.0
2018-May-23 20:20N 59°14' E 018°24'0 0.0
2018-May-23 19:56N 59°14' E 018°24'0 0.0
2018-May-23 19:26N 59°14' E 018°24'0 0.0
2018-May-23 18:56N 59°14' E 018°24'0 0.0
2018-May-23 18:20N 59°14' E 018°24'0 0.0
2018-May-23 17:56N 59°14' E 018°24'0 0.0
2018-May-23 17:20N 59°14' E 018°24'0 0.0
2018-May-23 16:56N 59°14' E 018°24'0 0.0
2018-May-23 16:30N 59°14' E 018°24'1 1.1
2018-May-23 16:00N 59°14' E 018°24'1 2.1
2018-May-23 15:30N 59°15' E 018°23'2 3.6
2018-May-23 15:00N 59°16' E 018°21'1 2.5
2018-May-23 14:30N 59°17' E 018°20'1 2.7
2018-May-23 14:00N 59°18' E 018°18'2 3.9
2018-May-23 13:30N 59°18' E 018°15'2 5.1
2018-May-23 13:00N 59°20' E 018°13'3 6.2
2018-May-23 12:30N 59°19' E 018°07'1 2.4
2018-May-23 12:00N 59°19' E 018°05'1 1.7
2018-May-23 11:30N 59°19' E 018°06'0 0.0
2018-May-23 11:00N 59°19' E 018°06'0 0.0
2018-May-23 10:30N 59°19' E 018°06'0 0.0
2018-May-23 10:00N 59°19' E 018°06'0 0.0
2018-May-23 09:30N 59°19' E 018°06'0 0.0
2018-May-23 09:00N 59°19' E 018°06'0 0.0
2018-May-23 08:30N 59°19' E 018°06'0 0.0
2018-May-23 08:00N 59°19' E 018°06'0 0.0
2018-May-23 07:30N 59°19' E 018°06'0 0.0
2018-May-23 07:00N 59°19' E 018°06'0 0.0
2018-May-23 06:30N 59°19' E 018°06'0 0.0
2018-May-23 06:00N 59°19' E 018°06'0 0.0
2018-May-23 05:30N 59°19' E 018°06'0 0.0
2018-May-23 05:00N 59°19' E 018°06'0 0.0
2018-May-23 04:30N 59°19' E 018°06'0 0.0
2018-May-23 04:00N 59°19' E 018°06'0 0.0
2018-May-23 03:30N 59°19' E 018°06'0 0.0
2018-May-23 03:00N 59°19' E 018°06'0 0.0
2018-May-23 02:30N 59°19' E 018°06'0 0.0
2018-May-23 02:00N 59°19' E 018°06'0 0.0
2018-May-23 01:30N 59°19' E 018°06'0 0.0
2018-May-23 01:00N 59°19' E 018°06'0 0.0
2018-May-23 00:30N 59°19' E 018°06'0 0.0
2018-May-23 00:00N 59°19' E 018°06'0 0.0
2018-May-22 23:30N 59°19' E 018°06'0 0.0
2018-May-22 23:00N 59°19' E 018°06'0 0.0
2018-May-22 22:30N 59°19' E 018°06'0 0.0
2018-May-22 22:00N 59°19' E 018°06'0 0.0
2018-May-22 21:30N 59°19' E 018°06'0 0.0
2018-May-22 21:00N 59°19' E 018°06'0 0.0
2018-May-22 20:30N 59°19' E 018°06'0 0.0
2018-May-22 20:00N 59°19' E 018°06'0 0.0
2018-May-22 19:30N 59°19' E 018°06'0 0.0
2018-May-22 19:00N 59°19' E 018°06'0 0.0
2018-May-22 18:30N 59°19' E 018°06'0 0.0
2018-May-22 18:00N 59°19' E 018°06'0 0.0
2018-May-22 17:30N 59°19' E 018°06'0 0.0
2018-May-22 17:00N 59°19' E 018°06'0 0.0
2018-May-22 16:30N 59°19' E 018°06'0 0.0
2018-May-22 16:00N 59°19' E 018°06'0 0.0
2018-May-22 15:30N 59°19' E 018°06'0 0.0
2018-May-22 15:00N 59°19' E 018°06'0 0.0
2018-May-22 14:30N 59°19' E 018°06'0 0.0
2018-May-22 14:00N 59°19' E 018°06'0 0.0
2018-May-22 13:30N 59°19' E 018°06'0 0.0
2018-May-22 13:00N 59°19' E 018°06'0 0.0
2018-May-22 12:30N 59°19' E 018°06'0 0.0
2018-May-22 12:00N 59°19' E 018°06'0 0.0
2018-May-22 11:30N 59°19' E 018°06'0 0.0
2018-May-22 10:54N 59°19' E 018°06'0 0.0
2018-May-22 10:30N 59°19' E 018°06'0 0.0
2018-May-22 10:00N 59°19' E 018°06'0 0.0
2018-May-22 09:30N 59°19' E 018°06'0 0.0
2018-May-22 09:00N 59°19' E 018°06'0 0.0
2018-May-22 08:30N 59°19' E 018°06'0 0.0
2018-May-22 08:00N 59°19' E 018°06'0 0.0
2018-May-22 07:30N 59°19' E 018°06'0 0.0
2018-May-22 07:00N 59°19' E 018°06'0 0.0
2018-May-22 06:30N 59°19' E 018°06'0 0.0
2018-May-22 06:00N 59°19' E 018°06'0 0.0
2018-May-22 05:30N 59°19' E 018°06'0 0.0
2018-May-22 05:00N 59°19' E 018°06'0 0.0
2018-May-22 04:30N 59°19' E 018°06'0 0.0
2018-May-22 04:00N 59°19' E 018°06'0 0.0
2018-May-22 03:30N 59°19' E 018°06'0 0.0
2018-May-22 03:00N 59°19' E 018°06'0 0.0
2018-May-22 02:30N 59°19' E 018°06'0 0.0
2018-May-22 02:00N 59°19' E 018°06'0 0.0
2018-May-22 01:30N 59°19' E 018°06'0 0.0
2018-May-22 01:00N 59°19' E 018°06'0 0.0
2018-May-22 00:30N 59°19' E 018°06'0 0.0
2018-May-22 00:00N 59°19' E 018°06'0 0.0
2018-May-21 23:30N 59°19' E 018°06'0 0.0
2018-May-21 23:00N 59°19' E 018°06'0 0.0
2018-May-21 22:30N 59°19' E 018°06'0 0.0
2018-May-21 22:00N 59°19' E 018°06'0 0.0
2018-May-21 21:30N 59°19' E 018°06'0 0.0
2018-May-21 21:00N 59°19' E 018°06'0 0.0
2018-May-21 20:30N 59°19' E 018°06'0 0.0
2018-May-21 20:00N 59°19' E 018°06'0 0.0
2018-May-21 19:30N 59°19' E 018°06'0 0.0
2018-May-21 19:00N 59°19' E 018°06'0 0.0
2018-May-21 18:30N 59°19' E 018°06'0 0.0
2018-May-21 18:00N 59°19' E 018°06'0 0.0
2018-May-21 17:30N 59°19' E 018°06'0 0.0
2018-May-21 17:00N 59°19' E 018°06'0 0.0
2018-May-21 16:30N 59°19' E 018°06'0 0.0
2018-May-21 16:00N 59°19' E 018°06'0 0.0
2018-May-21 15:30N 59°19' E 018°06'0 0.0
2018-May-21 15:00N 59°19' E 018°06'0 0.0
2018-May-21 14:24N 59°19' E 018°06'0 0.0
2018-May-21 14:00N 59°19' E 018°06'0 0.0
2018-May-21 13:30N 59°19' E 018°06'0 0.0
2018-May-21 13:00N 59°19' E 018°06'0 0.0
2018-May-21 12:30N 59°19' E 018°06'0 0.0
2018-May-21 12:00N 59°19' E 018°06'0 0.0
2018-May-21 11:30N 59°19' E 018°06'0 0.0
2018-May-21 11:00N 59°19' E 018°06'0 0.0
2018-May-21 10:30N 59°19' E 018°06'0 0.0
2018-May-21 10:00N 59°19' E 018°06'0 0.0
2018-May-21 09:30N 59°19' E 018°06'0 0.0
2018-May-21 09:00N 59°19' E 018°06'0 0.0
2018-May-21 08:30N 59°19' E 018°06'0 0.0
2018-May-21 07:59N 59°19' E 018°06'0 0.0
2018-May-21 07:30N 59°19' E 018°06'0 0.0
2018-May-21 07:00N 59°19' E 018°06'0 0.0
2018-May-21 06:30N 59°19' E 018°06'0 0.0
2018-May-21 05:59N 59°19' E 018°06'0 0.0
2018-May-21 05:30N 59°19' E 018°06'0 0.0
2018-May-21 04:59N 59°19' E 018°06'0 0.0
2018-May-21 04:30N 59°19' E 018°06'0 0.0
2018-May-21 04:00N 59°19' E 018°06'0 0.0
2018-May-21 03:30N 59°19' E 018°06'0 0.0
2018-May-21 03:00N 59°19' E 018°06'0 0.0
2018-May-21 02:30N 59°19' E 018°06'0 0.0
2018-May-21 02:00N 59°19' E 018°06'0 0.0
2018-May-21 01:30N 59°19' E 018°06'0 0.0
2018-May-21 01:00N 59°19' E 018°06'0 0.0
2018-May-21 00:30N 59°19' E 018°06'0 0.0
2018-May-21 00:00N 59°19' E 018°06'0 0.0
2018-May-20 23:30N 59°19' E 018°06'0 0.0
2018-May-20 22:59N 59°19' E 018°06'0 0.0
2018-May-20 22:30N 59°19' E 018°06'0 0.0
2018-May-20 22:00N 59°19' E 018°06'0 0.0
2018-May-20 21:29N 59°19' E 018°06'0 0.0
2018-May-20 20:59N 59°19' E 018°06'0 0.0
2018-May-20 20:30N 59°19' E 018°06'0 0.0
2018-May-20 19:59N 59°19' E 018°06'0 0.0
2018-May-20 19:30N 59°19' E 018°06'0 0.0
2018-May-20 19:00N 59°19' E 018°06'0 0.0
2018-May-20 18:29N 59°19' E 018°06'0 0.0
2018-May-20 17:59N 59°19' E 018°06'0 0.0
2018-May-20 17:29N 59°19' E 018°06'0 0.0
2018-May-20 17:00N 59°19' E 018°06'0 0.0
2018-May-20 16:29N 59°19' E 018°06'0 0.0
2018-May-20 15:59N 59°19' E 018°06'0 0.0
2018-May-20 15:29N 59°19' E 018°06'0 0.0
2018-May-20 15:00N 59°19' E 018°06'0 0.0
2018-May-20 14:29N 59°19' E 018°06'0 0.0
2018-May-20 14:00N 59°19' E 018°06'0 0.0
2018-May-20 13:29N 59°19' E 018°06'0 0.0
2018-May-20 13:00N 59°19' E 018°06'0 0.0
2018-May-20 12:29N 59°19' E 018°06'0 0.0
2018-May-20 11:59N 59°19' E 018°06'0 0.0
2018-May-20 11:29N 59°19' E 018°06'0 0.0
2018-May-20 10:59N 59°19' E 018°06'0 0.0
2018-May-20 10:29N 59°19' E 018°06'0 0.0
2018-May-20 09:59N 59°19' E 018°06'0 0.0
2018-May-20 09:29N 59°19' E 018°06'0 0.0
2018-May-20 08:59N 59°19' E 018°06'0 0.0
2018-May-20 08:29N 59°19' E 018°06'0 0.0
2018-May-20 07:59N 59°19' E 018°06'0 0.0
2018-May-20 07:29N 59°19' E 018°06'0 0.0
2018-May-20 06:59N 59°19' E 018°06'0 0.0
2018-May-20 06:29N 59°19' E 018°06'0 0.0
2018-May-20 05:59N 59°19' E 018°06'0 0.0
2018-May-20 05:29N 59°19' E 018°06'0 0.0
2018-May-20 04:59N 59°19' E 018°06'0 0.0
2018-May-20 04:29N 59°19' E 018°06'0 0.0
2018-May-20 04:00N 59°19' E 018°06'0 0.0
2018-May-20 03:29N 59°19' E 018°06'0 0.0
2018-May-20 02:59N 59°19' E 018°06'0 0.0
2018-May-20 02:29N 59°19' E 018°06'0 0.0
2018-May-20 01:59N 59°19' E 018°06'0 0.0
2018-May-20 01:29N 59°19' E 018°06'0 0.0
2018-May-20 00:59N 59°19' E 018°06'0 0.0
2018-May-20 00:29N 59°19' E 018°06'0 0.0
2018-May-19 23:59N 59°19' E 018°06'0 0.0
2018-May-19 23:29N 59°19' E 018°06'0 0.0
2018-May-19 22:59N 59°19' E 018°06'0 0.0
2018-May-19 22:29N 59°19' E 018°06'0 0.0
2018-May-19 21:59N 59°19' E 018°06'0 0.0
2018-May-19 21:29N 59°19' E 018°06'0 0.0
2018-May-19 20:59N 59°19' E 018°06'0 0.0
2018-May-19 20:29N 59°19' E 018°06'0 0.0
2018-May-19 19:59N 59°19' E 018°06'0 0.0
2018-May-19 19:29N 59°19' E 018°06'0 0.0
2018-May-19 18:59N 59°19' E 018°06'0 0.0
2018-May-19 18:29N 59°19' E 018°06'0 0.0
2018-May-19 17:59N 59°19' E 018°06'1 1.6
2018-May-19 17:30N 59°19' E 018°08'3 5.1
2018-May-19 17:00N 59°20' E 018°12'2 3.4
2018-May-19 16:30N 59°21' E 018°15'1 2.9
2018-May-19 16:00N 59°20' E 018°13'1 2.5
2018-May-19 15:30N 59°19' E 018°11'1 3.0
2018-May-19 15:00N 59°19' E 018°08'1 2.8
2018-May-19 14:29N 59°20' E 018°05'0 0.0
2018-May-19 13:59N 59°20' E 018°05'0 0.0
2018-May-19 13:29N 59°20' E 018°05'0 0.0
2018-May-19 12:59N 59°20' E 018°05'0 0.0
2018-May-19 12:29N 59°20' E 018°05'0 0.0
2018-May-19 11:59N 59°20' E 018°05'0 0.0
2018-May-19 11:29N 59°20' E 018°05'0 0.0
2018-May-19 10:59N 59°20' E 018°05'0 0.0
2018-May-19 10:30N 59°20' E 018°05'0 0.0
2018-May-19 10:00N 59°20' E 018°05'0 0.6
2018-May-19 09:30N 59°19' E 018°06'0 0.6
2018-May-19 08:59N 59°19' E 018°06'0 0.0
2018-May-19 08:29N 59°19' E 018°06'0 0.0
2018-May-19 07:59N 59°19' E 018°06'0 0.0
2018-May-19 07:29N 59°19' E 018°06'0 0.0
2018-May-19 06:59N 59°19' E 018°06'0 0.0
2018-May-19 06:29N 59°19' E 018°06'0 0.0
2018-May-19 05:59N 59°19' E 018°06'0 0.0
2018-May-19 05:29N 59°19' E 018°06'0 0.0
2018-May-19 04:59N 59°19' E 018°06'0 0.0
2018-May-19 04:29N 59°19' E 018°06'0 0.0
2018-May-19 03:59N 59°19' E 018°06'0 0.0
2018-May-19 03:29N 59°19' E 018°06'0 0.0
2018-May-19 02:59N 59°19' E 018°06'0 0.0
2018-May-19 02:29N 59°19' E 018°06'0 0.0
2018-May-19 01:59N 59°19' E 018°06'0 0.0
2018-May-19 01:29N 59°19' E 018°06'0 0.0
2018-May-19 00:59N 59°19' E 018°06'0 0.0
2018-May-19 00:29N 59°19' E 018°06'0 0.0
2018-May-18 23:59N 59°19' E 018°06'0 0.0
2018-May-18 23:29N 59°19' E 018°06'0 0.0
2018-May-18 22:59N 59°19' E 018°06'0 0.0
2018-May-18 22:29N 59°19' E 018°06'0 0.0
2018-May-18 21:59N 59°19' E 018°06'0 0.0
2018-May-18 21:29N 59°19' E 018°06'0 0.0
2018-May-18 20:59N 59°19' E 018°06'0 0.0
2018-May-18 20:29N 59°19' E 018°06'0 0.0
2018-May-18 19:59N 59°19' E 018°06'0 0.0
2018-May-18 19:29N 59°19' E 018°06'0 0.0
2018-May-18 18:59N 59°19' E 018°06'0 0.0
2018-May-18 18:29N 59°19' E 018°06'0 0.0
2018-May-18 17:59N 59°19' E 018°06'0 0.0
2018-May-18 17:29N 59°19' E 018°06'0 0.0
2018-May-18 16:59N 59°19' E 018°06'0 0.0
2018-May-18 16:29N 59°19' E 018°06'0 0.0
2018-May-18 15:59N 59°19' E 018°06'0 0.0
2018-May-18 15:29N 59°19' E 018°06'0 0.0
2018-May-18 14:59N 59°19' E 018°06'0 0.0
2018-May-18 14:29N 59°19' E 018°06'0 0.0
2018-May-18 13:59N 59°19' E 018°06'0 0.0
2018-May-18 13:29N 59°19' E 018°06'0 0.0
2018-May-18 12:59N 59°19' E 018°06'0 0.0
2018-May-18 12:29N 59°19' E 018°06'0 0.0
2018-May-18 11:59N 59°19' E 018°06'0 0.0
2018-May-18 11:29N 59°19' E 018°06'0 0.0
2018-May-18 10:59N 59°19' E 018°06'0 0.0
2018-May-18 10:29N 59°19' E 018°06'0 0.0
2018-May-18 09:59N 59°19' E 018°06'0 0.0
2018-May-18 09:29N 59°19' E 018°06'0 0.0
2018-May-18 08:59N 59°19' E 018°06'0 0.0
2018-May-18 08:29N 59°19' E 018°06'0 0.0
2018-May-18 07:59N 59°19' E 018°06'0 0.0
2018-May-18 07:29N 59°19' E 018°06'0 0.0
2018-May-18 06:59N 59°19' E 018°06'0 0.0
2018-May-18 06:29N 59°19' E 018°06'0 0.0
2018-May-18 05:59N 59°19' E 018°06'0 0.0
2018-May-18 05:29N 59°19' E 018°06'0 0.0
2018-May-18 04:59N 59°19' E 018°06'0 0.0
2018-May-18 04:29N 59°19' E 018°06'0 0.0
2018-May-18 03:59N 59°19' E 018°06'0 0.0
2018-May-18 03:29N 59°19' E 018°06'0 0.0
2018-May-18 02:59N 59°19' E 018°06'0 0.0
2018-May-18 02:29N 59°19' E 018°06'0 0.0
2018-May-18 01:59N 59°19' E 018°06'0 0.0
2018-May-18 01:29N 59°19' E 018°06'0 0.0
2018-May-18 00:59N 59°19' E 018°06'0 0.0
2018-May-18 00:29N 59°19' E 018°06'0 0.0
2018-May-17 23:59N 59°19' E 018°06'0 0.0
2018-May-17 23:29N 59°19' E 018°06'0 0.0
2018-May-17 22:59N 59°19' E 018°06'0 0.0
2018-May-17 22:29N 59°19' E 018°06'0 0.0
2018-May-17 21:59N 59°19' E 018°06'0 0.0
2018-May-17 21:29N 59°19' E 018°06'0 0.0
2018-May-17 20:58N 59°19' E 018°06'0 0.0
2018-May-17 20:28N 59°19' E 018°06'0 0.0
2018-May-17 19:59N 59°19' E 018°06'0 0.0
2018-May-17 19:29N 59°19' E 018°06'0 0.0
2018-May-17 18:59N 59°19' E 018°06'0 0.0
2018-May-17 18:29N 59°19' E 018°06'0 0.0
2018-May-17 17:59N 59°19' E 018°06'0 0.0
2018-May-17 17:29N 59°19' E 018°06'0 0.0
2018-May-17 16:56N 59°19' E 018°06'0 0.0
2018-May-17 16:26N 59°19' E 018°06'0 0.0
2018-May-17 15:56N 59°19' E 018°06'0 0.0
2018-May-17 15:29N 59°19' E 018°06'0 0.0
2018-May-17 14:58N 59°19' E 018°06'0 0.0
2018-May-17 14:26N 59°19' E 018°06'0 0.0
2018-May-17 13:59N 59°19' E 018°06'0 0.0
2018-May-17 13:29N 59°19' E 018°06'0 0.0
2018-May-17 12:56N 59°19' E 018°06'0 0.0
2018-May-17 12:29N 59°19' E 018°06'0 0.0
2018-May-17 11:59N 59°19' E 018°06'0 0.0
2018-May-17 11:26N 59°19' E 018°06'0 0.0
2018-May-17 10:59N 59°19' E 018°06'0 0.0
2018-May-17 10:28N 59°19' E 018°06'0 0.0
2018-May-17 09:46N 59°19' E 018°06'0 0.0
2018-May-17 09:29N 59°19' E 018°06'0 0.0
2018-May-17 08:59N 59°19' E 018°06'0 0.0
2018-May-17 08:20N 59°19' E 018°06'0 0.0
2018-May-17 07:59N 59°19' E 018°06'0 0.0
2018-May-17 07:25N 59°19' E 018°06'0 0.0
2018-May-17 06:56N 59°19' E 018°06'0 0.0
2018-May-17 06:29N 59°19' E 018°06'0 0.0
2018-May-17 05:59N 59°19' E 018°06'0 0.0
2018-May-17 05:29N 59°19' E 018°06'0 0.0
2018-May-17 04:58N 59°19' E 018°06'0 0.0
2018-May-17 04:28N 59°19' E 018°06'0 0.0
2018-May-17 03:58N 59°19' E 018°06'0 0.0
2018-May-17 03:28N 59°19' E 018°06'0 0.0
2018-May-17 02:58N 59°19' E 018°06'0 0.0
2018-May-17 02:29N 59°19' E 018°06'0 0.0
2018-May-17 01:59N 59°19' E 018°06'0 0.0
2018-May-17 01:28N 59°19' E 018°06'0 0.0
2018-May-17 00:58N 59°19' E 018°06'0 0.0
2018-May-17 00:28N 59°19' E 018°06'0 0.0
2018-May-16 23:59N 59°19' E 018°06'0 0.0
2018-May-16 23:28N 59°19' E 018°06'0 0.0
2018-May-16 22:58N 59°19' E 018°06'0 0.0
2018-May-16 22:28N 59°19' E 018°06'0 0.0
2018-May-16 21:58N 59°19' E 018°06'0 0.0
2018-May-16 21:28N 59°19' E 018°06'0 0.0
2018-May-16 20:58N 59°19' E 018°06'0 0.0
2018-May-16 20:28N 59°19' E 018°06'0 0.0
2018-May-16 19:58N 59°19' E 018°06'0 0.0
2018-May-16 19:28N 59°19' E 018°06'0 0.0
2018-May-16 18:58N 59°19' E 018°06'0 0.0
2018-May-16 18:28N 59°19' E 018°06'0 0.0
2018-May-16 17:58N 59°19' E 018°06'0 0.0
2018-May-16 17:28N 59°19' E 018°06'0 0.0
2018-May-16 16:58N 59°19' E 018°06'0 0.0
2018-May-16 16:28N 59°19' E 018°06'0 0.0
2018-May-16 15:58N 59°19' E 018°06'0 0.0
2018-May-16 15:28N 59°19' E 018°06'0 0.0
2018-May-16 14:58N 59°19' E 018°06'0 0.0
2018-May-16 14:28N 59°19' E 018°06'0 0.0
2018-May-16 13:58N 59°19' E 018°06'0 0.0
2018-May-16 13:28N 59°19' E 018°06'0 0.0
2018-May-16 12:58N 59°19' E 018°06'0 0.0
2018-May-16 12:28N 59°19' E 018°06'0 0.0
2018-May-16 11:58N 59°19' E 018°06'0 0.0
2018-May-16 11:28N 59°19' E 018°06'0 0.0
2018-May-16 10:58N 59°19' E 018°06'0 0.0
2018-May-16 10:28N 59°19' E 018°06'0 0.0
2018-May-16 09:58N 59°19' E 018°06'0 0.0
2018-May-16 09:28N 59°19' E 018°06'0 0.0
2018-May-16 08:58N 59°19' E 018°06'0 0.0
2018-May-16 08:28N 59°19' E 018°06'0 0.0
2018-May-16 07:58N 59°19' E 018°06'0 0.0
2018-May-16 07:28N 59°19' E 018°06'0 0.0
2018-May-16 06:58N 59°19' E 018°06'0 0.0
2018-May-16 06:25N 59°19' E 018°06'0 0.0
2018-May-16 05:58N 59°19' E 018°06'0 0.0
2018-May-16 05:28N 59°19' E 018°06'0 0.0
2018-May-16 04:58N 59°19' E 018°06'0 0.0
2018-May-16 04:28N 59°19' E 018°06'0 0.0
2018-May-16 03:58N 59°19' E 018°06'0 0.0
2018-May-16 03:28N 59°19' E 018°06'0 0.0
2018-May-16 02:58N 59°19' E 018°06'0 0.0
2018-May-16 02:28N 59°19' E 018°06'0 0.0
2018-May-16 01:58N 59°19' E 018°06'0 0.0
2018-May-16 01:28N 59°19' E 018°06'0 0.0
2018-May-16 00:58N 59°19' E 018°06'0 0.0
2018-May-16 00:25N 59°19' E 018°06'0 0.0
2018-May-15 23:58N 59°19' E 018°06'0 0.0
2018-May-15 23:28N 59°19' E 018°06'0 0.0
2018-May-15 22:58N 59°19' E 018°06'0 0.0
2018-May-15 22:28N 59°19' E 018°06'0 0.0
2018-May-15 21:58N 59°19' E 018°06'0 0.0
2018-May-15 21:25N 59°19' E 018°06'0 0.0
2018-May-15 20:58N 59°19' E 018°06'0 0.0
2018-May-15 20:28N 59°19' E 018°06'0 0.0
2018-May-15 19:55N 59°19' E 018°06'0 0.0
2018-May-15 19:16N 59°19' E 018°06'0 0.0
2018-May-15 18:58N 59°19' E 018°06'0 0.0
2018-May-15 18:22N 59°19' E 018°06'0 0.0
2018-May-15 17:52N 59°19' E 018°06'0 0.0
2018-May-15 17:25N 59°19' E 018°06'0 0.0
2018-May-15 16:58N 59°19' E 018°06'0 0.0
2018-May-15 16:16N 59°19' E 018°06'0 0.0
2018-May-15 15:55N 59°19' E 018°06'0 0.0
2018-May-15 15:25N 59°19' E 018°06'0 0.0
2018-May-15 14:55N 59°19' E 018°06'0 0.0
2018-May-15 14:28N 59°19' E 018°06'0 0.0
2018-May-15 13:58N 59°19' E 018°06'0 0.0
2018-May-15 13:25N 59°19' E 018°06'0 0.0
2018-May-15 12:58N 59°19' E 018°06'0 0.0
2018-May-15 12:28N 59°19' E 018°06'0 0.0
2018-May-15 11:58N 59°19' E 018°06'0 0.0
2018-May-15 11:25N 59°19' E 018°06'0 0.0
2018-May-15 10:58N 59°19' E 018°06'0 0.0
2018-May-15 10:25N 59°19' E 018°06'0 0.0
2018-May-15 09:58N 59°19' E 018°06'0 0.0
2018-May-15 09:28N 59°19' E 018°06'0 0.0
2018-May-15 08:52N 59°19' E 018°06'0 0.0
2018-May-15 08:28N 59°19' E 018°06'0 0.0
2018-May-15 07:58N 59°19' E 018°06'0 0.0
2018-May-15 07:28N 59°19' E 018°06'0 0.0
2018-May-15 06:58N 59°19' E 018°06'0 0.0
2018-May-15 06:28N 59°19' E 018°06'0 0.0
2018-May-15 05:58N 59°19' E 018°06'0 0.0
2018-May-15 05:28N 59°19' E 018°06'0 0.0
2018-May-15 04:58N 59°19' E 018°06'0 0.0
2018-May-15 04:28N 59°19' E 018°06'0 0.0
2018-May-15 03:58N 59°19' E 018°06'0 0.0
2018-May-15 03:25N 59°19' E 018°06'0 0.0
2018-May-15 02:58N 59°19' E 018°06'0 0.0
2018-May-15 02:28N 59°19' E 018°06'0 0.0
2018-May-15 01:58N 59°19' E 018°06'0 0.0
2018-May-15 01:25N 59°19' E 018°06'0 0.0
2018-May-15 00:58N 59°19' E 018°06'0 0.0
2018-May-15 00:28N 59°19' E 018°06'0 0.0
2018-May-14 23:58N 59°19' E 018°06'0 0.0
2018-May-14 23:25N 59°19' E 018°06'0 0.0
2018-May-14 22:58N 59°19' E 018°06'0 0.0
2018-May-14 22:28N 59°19' E 018°06'0 0.0
2018-May-14 21:58N 59°19' E 018°06'0 0.0
2018-May-14 21:28N 59°19' E 018°06'0 0.0
2018-May-14 20:58N 59°19' E 018°06'0 0.0
2018-May-14 20:28N 59°19' E 018°06'0 0.0
2018-May-14 19:58N 59°19' E 018°06'0 0.0
2018-May-14 19:22N 59°19' E 018°06'0 0.0
2018-May-14 18:58N 59°19' E 018°06'0 0.0
2018-May-14 18:28N 59°19' E 018°06'0 0.0
2018-May-14 17:58N 59°19' E 018°06'0 0.0
2018-May-14 17:28N 59°19' E 018°06'0 0.0
2018-May-14 16:52N 59°19' E 018°06'0 0.0
2018-May-14 16:28N 59°19' E 018°06'0 0.0
2018-May-14 15:58N 59°19' E 018°06'0 0.0
2018-May-14 15:28N 59°19' E 018°06'0 0.0
2018-May-14 14:58N 59°19' E 018°06'0 0.0
2018-May-14 14:28N 59°19' E 018°06'0 0.0
2018-May-14 13:58N 59°19' E 018°06'0 0.0
2018-May-14 13:28N 59°19' E 018°06'0 0.0
2018-May-14 12:58N 59°19' E 018°06'0 0.0
2018-May-14 12:28N 59°19' E 018°06'0 0.0
2018-May-14 11:55N 59°19' E 018°06'0 0.0
2018-May-14 11:28N 59°19' E 018°06'0 0.0
2018-May-14 10:58N 59°19' E 018°06'0 0.0
2018-May-14 10:28N 59°19' E 018°06'0 0.0
2018-May-14 09:58N 59°19' E 018°06'0 0.0
2018-May-14 09:28N 59°19' E 018°06'0 0.0
2018-May-14 08:58N 59°19' E 018°06'0 0.0
2018-May-14 08:28N 59°19' E 018°06'0 0.0
2018-May-14 07:58N 59°19' E 018°06'0 0.0
2018-May-14 07:28N 59°19' E 018°06'0 0.0
2018-May-14 06:58N 59°19' E 018°06'0 0.0
2018-May-14 06:28N 59°19' E 018°06'0 0.0
2018-May-14 05:58N 59°19' E 018°06'0 0.0
2018-May-14 05:28N 59°19' E 018°06'0 0.0
2018-May-14 04:58N 59°19' E 018°06'0 0.0
2018-May-14 04:28N 59°19' E 018°06'0 0.0
2018-May-14 03:58N 59°19' E 018°06'0 0.0
2018-May-14 03:28N 59°19' E 018°06'0 0.0
2018-May-14 02:58N 59°19' E 018°06'0 0.0
2018-May-14 02:28N 59°19' E 018°06'0 0.0
2018-May-14 01:58N 59°19' E 018°06'0 0.0
2018-May-14 01:28N 59°19' E 018°06'0 0.0
2018-May-14 00:58N 59°19' E 018°06'0 0.0
2018-May-14 00:28N 59°19' E 018°06'0 0.0
2018-May-13 23:58N 59°19' E 018°06'0 0.0
2018-May-13 23:28N 59°19' E 018°06'0 0.0
2018-May-13 22:58N 59°19' E 018°06'0 0.0
2018-May-13 22:28N 59°19' E 018°06'0 0.0
2018-May-13 21:58N 59°19' E 018°06'  
Track history (hours):
 
Tides and Currents Weather Stations Pressure Air Temp Water Temp Dewpoint Dewpoint Depression Visibility Wind Speed Wind Dir Waves Ship Positions

Ellen (Sweden)

Ship's website: http://www.syellen.org/Skolsegelfartyget_Ellen/Hem.html

Last reported at 2018-May-23 21:44 UTC. Time now 2018-May-23 22:26 UTC.
Position N 59°14' E 018°24'.

Length 22 m; draft 2.2 m.

Type: Sailing vessel. MMSI: 265508900.

Date/timePositionNaut miles runAvg speedWind from/ knotsBaromVisibWave heightAir tempDewpointWater temp
2018-May-23 21:44N 59°14' E 018°24'0 0.0
2018-May-23 21:26N 59°14' E 018°24'0 0.0
2018-May-23 20:32N 59°14' E 018°24'0 0.0
2018-May-23 20:20N 59°14' E 018°24'0 0.0
2018-May-23 19:56N 59°14' E 018°24'0 0.0
2018-May-23 19:26N 59°14' E 018°24'0 0.0
2018-May-23 18:56N 59°14' E 018°24'0 0.0
2018-May-23 18:20N 59°14' E 018°24'0 0.0
2018-May-23 17:56N 59°14' E 018°24'0 0.0
2018-May-23 17:20N 59°14' E 018°24'0 0.0
2018-May-23 16:56N 59°14' E 018°24'0 0.0
2018-May-23 16:30N 59°14' E 018°24'1 1.1
2018-May-23 16:00N 59°14' E 018°24'1 2.1
2018-May-23 15:30N 59°15' E 018°23'2 3.6
2018-May-23 15:00N 59°16' E 018°21'1 2.5
2018-May-23 14:30N 59°17' E 018°20'1 2.7
2018-May-23 14:00N 59°18' E 018°18'2 3.9
2018-May-23 13:30N 59°18' E 018°15'2 5.1
2018-May-23 13:00N 59°20' E 018°13'3 6.2
2018-May-23 12:30N 59°19' E 018°07'1 2.4
2018-May-23 12:00N 59°19' E 018°05'1 1.7
2018-May-23 11:30N 59°19' E 018°06'0 0.0
2018-May-23 11:00N 59°19' E 018°06'0 0.0
2018-May-23 10:30N 59°19' E 018°06'0 0.0
2018-May-23 10:00N 59°19' E 018°06'0 0.0
2018-May-23 09:30N 59°19' E 018°06'0 0.0
2018-May-23 09:00N 59°19' E 018°06'0 0.0
2018-May-23 08:30N 59°19' E 018°06'0 0.0
2018-May-23 08:00N 59°19' E 018°06'0 0.0
2018-May-23 07:30N 59°19' E 018°06'0 0.0
2018-May-23 07:00N 59°19' E 018°06'0 0.0
2018-May-23 06:30N 59°19' E 018°06'0 0.0
2018-May-23 06:00N 59°19' E 018°06'0 0.0
2018-May-23 05:30N 59°19' E 018°06'0 0.0
2018-May-23 05:00N 59°19' E 018°06'0 0.0
2018-May-23 04:30N 59°19' E 018°06'0 0.0
2018-May-23 04:00N 59°19' E 018°06'0 0.0
2018-May-23 03:30N 59°19' E 018°06'0 0.0
2018-May-23 03:00N 59°19' E 018°06'0 0.0
2018-May-23 02:30N 59°19' E 018°06'0 0.0
2018-May-23 02:00N 59°19' E 018°06'0 0.0
2018-May-23 01:30N 59°19' E 018°06'0 0.0
2018-May-23 01:00N 59°19' E 018°06'0 0.0
2018-May-23 00:30N 59°19' E 018°06'0 0.0
2018-May-23 00:00N 59°19' E 018°06'0 0.0
2018-May-22 23:30N 59°19' E 018°06'0 0.0
2018-May-22 23:00N 59°19' E 018°06'0 0.0
2018-May-22 22:30N 59°19' E 018°06'0 0.0
2018-May-22 22:00N 59°19' E 018°06'0 0.0
2018-May-22 21:30N 59°19' E 018°06'0 0.0
2018-May-22 21:00N 59°19' E 018°06'0 0.0
2018-May-22 20:30N 59°19' E 018°06'0 0.0
2018-May-22 20:00N 59°19' E 018°06'0 0.0
2018-May-22 19:30N 59°19' E 018°06'0 0.0
2018-May-22 19:00N 59°19' E 018°06'0 0.0
2018-May-22 18:30N 59°19' E 018°06'0 0.0
2018-May-22 18:00N 59°19' E 018°06'0 0.0
2018-May-22 17:30N 59°19' E 018°06'0 0.0
2018-May-22 17:00N 59°19' E 018°06'0 0.0
2018-May-22 16:30N 59°19' E 018°06'0 0.0
2018-May-22 16:00N 59°19' E 018°06'0 0.0
2018-May-22 15:30N 59°19' E 018°06'0 0.0
2018-May-22 15:00N 59°19' E 018°06'0 0.0
2018-May-22 14:30N 59°19' E 018°06'0 0.0
2018-May-22 14:00N 59°19' E 018°06'0 0.0
2018-May-22 13:30N 59°19' E 018°06'0 0.0
2018-May-22 13:00N 59°19' E 018°06'0 0.0
2018-May-22 12:30N 59°19' E 018°06'0 0.0
2018-May-22 12:00N 59°19' E 018°06'0 0.0
2018-May-22 11:30N 59°19' E 018°06'0 0.0
2018-May-22 10:54N 59°19' E 018°06'0 0.0
2018-May-22 10:30N 59°19' E 018°06'0 0.0
2018-May-22 10:00N 59°19' E 018°06'0 0.0
2018-May-22 09:30N 59°19' E 018°06'0 0.0
2018-May-22 09:00N 59°19' E 018°06'0 0.0
2018-May-22 08:30N 59°19' E 018°06'0 0.0
2018-May-22 08:00N 59°19' E 018°06'0 0.0
2018-May-22 07:30N 59°19' E 018°06'0 0.0
2018-May-22 07:00N 59°19' E 018°06'0 0.0
2018-May-22 06:30N 59°19' E 018°06'0 0.0
2018-May-22 06:00N 59°19' E 018°06'0 0.0
2018-May-22 05:30N 59°19' E 018°06'0 0.0
2018-May-22 05:00N 59°19' E 018°06'0 0.0
2018-May-22 04:30N 59°19' E 018°06'0 0.0
2018-May-22 04:00N 59°19' E 018°06'0 0.0
2018-May-22 03:30N 59°19' E 018°06'0 0.0
2018-May-22 03:00N 59°19' E 018°06'0 0.0
2018-May-22 02:30N 59°19' E 018°06'0 0.0
2018-May-22 02:00N 59°19' E 018°06'0 0.0
2018-May-22 01:30N 59°19' E 018°06'0 0.0
2018-May-22 01:00N 59°19' E 018°06'0 0.0
2018-May-22 00:30N 59°19' E 018°06'0 0.0
2018-May-22 00:00N 59°19' E 018°06'0 0.0
2018-May-21 23:30N 59°19' E 018°06'0 0.0
2018-May-21 23:00N 59°19' E 018°06'0 0.0
2018-May-21 22:30N 59°19' E 018°06'0 0.0
2018-May-21 22:00N 59°19' E 018°06'0 0.0
2018-May-21 21:30N 59°19' E 018°06'0 0.0
2018-May-21 21:00N 59°19' E 018°06'0 0.0
2018-May-21 20:30N 59°19' E 018°06'0 0.0
2018-May-21 20:00N 59°19' E 018°06'0 0.0
2018-May-21 19:30N 59°19' E 018°06'0 0.0
2018-May-21 19:00N 59°19' E 018°06'0 0.0
2018-May-21 18:30N 59°19' E 018°06'0 0.0
2018-May-21 18:00N 59°19' E 018°06'0 0.0
2018-May-21 17:30N 59°19' E 018°06'0 0.0
2018-May-21 17:00N 59°19' E 018°06'0 0.0
2018-May-21 16:30N 59°19' E 018°06'0 0.0
2018-May-21 16:00N 59°19' E 018°06'0 0.0
2018-May-21 15:30N 59°19' E 018°06'0 0.0
2018-May-21 15:00N 59°19' E 018°06'0 0.0
2018-May-21 14:24N 59°19' E 018°06'0 0.0
2018-May-21 14:00N 59°19' E 018°06'0 0.0
2018-May-21 13:30N 59°19' E 018°06'0 0.0
2018-May-21 13:00N 59°19' E 018°06'0 0.0
2018-May-21 12:30N 59°19' E 018°06'0 0.0
2018-May-21 12:00N 59°19' E 018°06'0 0.0
2018-May-21 11:30N 59°19' E 018°06'0 0.0
2018-May-21 11:00N 59°19' E 018°06'0 0.0
2018-May-21 10:30N 59°19' E 018°06'0 0.0
2018-May-21 10:00N 59°19' E 018°06'0 0.0
2018-May-21 09:30N 59°19' E 018°06'0 0.0
2018-May-21 09:00N 59°19' E 018°06'0 0.0
2018-May-21 08:30N 59°19' E 018°06'0 0.0
2018-May-21 07:59N 59°19' E 018°06'0 0.0
2018-May-21 07:30N 59°19' E 018°06'0 0.0
2018-May-21 07:00N 59°19' E 018°06'0 0.0
2018-May-21 06:30N 59°19' E 018°06'0 0.0
2018-May-21 05:59N 59°19' E 018°06'0 0.0
2018-May-21 05:30N 59°19' E 018°06'0 0.0
2018-May-21 04:59N 59°19' E 018°06'0 0.0
2018-May-21 04:30N 59°19' E 018°06'0 0.0
2018-May-21 04:00N 59°19' E 018°06'0 0.0
2018-May-21 03:30N 59°19' E 018°06'0 0.0
2018-May-21 03:00N 59°19' E 018°06'0 0.0
2018-May-21 02:30N 59°19' E 018°06'0 0.0
2018-May-21 02:00N 59°19' E 018°06'0 0.0
2018-May-21 01:30N 59°19' E 018°06'0 0.0
2018-May-21 01:00N 59°19' E 018°06'0 0.0
2018-May-21 00:30N 59°19' E 018°06'0 0.0
2018-May-21 00:00N 59°19' E 018°06'0 0.0
2018-May-20 23:30N 59°19' E 018°06'0 0.0
2018-May-20 22:59N 59°19' E 018°06'0 0.0
2018-May-20 22:30N 59°19' E 018°06'0 0.0
2018-May-20 22:00N 59°19' E 018°06'0 0.0
2018-May-20 21:29N 59°19' E 018°06'0 0.0
2018-May-20 20:59N 59°19' E 018°06'0 0.0
2018-May-20 20:30N 59°19' E 018°06'0 0.0
2018-May-20 19:59N 59°19' E 018°06'0 0.0
2018-May-20 19:30N 59°19' E 018°06'0 0.0
2018-May-20 19:00N 59°19' E 018°06'0 0.0
2018-May-20 18:29N 59°19' E 018°06'0 0.0
2018-May-20 17:59N 59°19' E 018°06'0 0.0
2018-May-20 17:29N 59°19' E 018°06'0 0.0
2018-May-20 17:00N 59°19' E 018°06'0 0.0
2018-May-20 16:29N 59°19' E 018°06'0 0.0
2018-May-20 15:59N 59°19' E 018°06'0 0.0
2018-May-20 15:29N 59°19' E 018°06'0 0.0
2018-May-20 15:00N 59°19' E 018°06'0 0.0
2018-May-20 14:29N 59°19' E 018°06'0 0.0
2018-May-20 14:00N 59°19' E 018°06'0 0.0
2018-May-20 13:29N 59°19' E 018°06'0 0.0
2018-May-20 13:00N 59°19' E 018°06'0 0.0
2018-May-20 12:29N 59°19' E 018°06'0 0.0
2018-May-20 11:59N 59°19' E 018°06'0 0.0
2018-May-20 11:29N 59°19' E 018°06'0 0.0
2018-May-20 10:59N 59°19' E 018°06'0 0.0
2018-May-20 10:29N 59°19' E 018°06'0 0.0
2018-May-20 09:59N 59°19' E 018°06'0 0.0
2018-May-20 09:29N 59°19' E 018°06'0 0.0
2018-May-20 08:59N 59°19' E 018°06'0 0.0
2018-May-20 08:29N 59°19' E 018°06'0 0.0
2018-May-20 07:59N 59°19' E 018°06'0 0.0
2018-May-20 07:29N 59°19' E 018°06'0 0.0
2018-May-20 06:59N 59°19' E 018°06'0 0.0
2018-May-20 06:29N 59°19' E 018°06'0 0.0
2018-May-20 05:59N 59°19' E 018°06'0 0.0
2018-May-20 05:29N 59°19' E 018°06'0 0.0
2018-May-20 04:59N 59°19' E 018°06'0 0.0
2018-May-20 04:29N 59°19' E 018°06'0 0.0
2018-May-20 04:00N 59°19' E 018°06'0 0.0
2018-May-20 03:29N 59°19' E 018°06'0 0.0
2018-May-20 02:59N 59°19' E 018°06'0 0.0
2018-May-20 02:29N 59°19' E 018°06'0 0.0
2018-May-20 01:59N 59°19' E 018°06'0 0.0
2018-May-20 01:29N 59°19' E 018°06'0 0.0
2018-May-20 00:59N 59°19' E 018°06'0 0.0
2018-May-20 00:29N 59°19' E 018°06'0 0.0
2018-May-19 23:59N 59°19' E 018°06'0 0.0
2018-May-19 23:29N 59°19' E 018°06'0 0.0
2018-May-19 22:59N 59°19' E 018°06'0 0.0
2018-May-19 22:29N 59°19' E 018°06'0 0.0
2018-May-19 21:59N 59°19' E 018°06'0 0.0
2018-May-19 21:29N 59°19' E 018°06'0 0.0
2018-May-19 20:59N 59°19' E 018°06'0 0.0
2018-May-19 20:29N 59°19' E 018°06'0 0.0
2018-May-19 19:59N 59°19' E 018°06'0 0.0
2018-May-19 19:29N 59°19' E 018°06'0 0.0
2018-May-19 18:59N 59°19' E 018°06'0 0.0
2018-May-19 18:29N 59°19' E 018°06'0 0.0
2018-May-19 17:59N 59°19' E 018°06'1 1.6
2018-May-19 17:30N 59°19' E 018°08'3 5.1
2018-May-19 17:00N 59°20' E 018°12'2 3.4
2018-May-19 16:30N 59°21' E 018°15'1 2.9
2018-May-19 16:00N 59°20' E 018°13'1 2.5
2018-May-19 15:30N 59°19' E 018°11'1 3.0
2018-May-19 15:00N 59°19' E 018°08'1 2.8
2018-May-19 14:29N 59°20' E 018°05'0 0.0
2018-May-19 13:59N 59°20' E 018°05'0 0.0
2018-May-19 13:29N 59°20' E 018°05'0 0.0
2018-May-19 12:59N 59°20' E 018°05'0 0.0
2018-May-19 12:29N 59°20' E 018°05'0 0.0
2018-May-19 11:59N 59°20' E 018°05'0 0.0
2018-May-19 11:29N 59°20' E 018°05'0 0.0
2018-May-19 10:59N 59°20' E 018°05'0 0.0
2018-May-19 10:30N 59°20' E 018°05'0 0.0
2018-May-19 10:00N 59°20' E 018°05'0 0.6
2018-May-19 09:30N 59°19' E 018°06'0 0.6
2018-May-19 08:59N 59°19' E 018°06'0 0.0
2018-May-19 08:29N 59°19' E 018°06'0 0.0
2018-May-19 07:59N 59°19' E 018°06'0 0.0
2018-May-19 07:29N 59°19' E 018°06'0 0.0
2018-May-19 06:59N 59°19' E 018°06'0 0.0
2018-May-19 06:29N 59°19' E 018°06'0 0.0
2018-May-19 05:59N 59°19' E 018°06'0 0.0
2018-May-19 05:29N 59°19' E 018°06'0 0.0
2018-May-19 04:59N 59°19' E 018°06'0 0.0
2018-May-19 04:29N 59°19' E 018°06'0 0.0
2018-May-19 03:59N 59°19' E 018°06'0 0.0
2018-May-19 03:29N 59°19' E 018°06'0 0.0
2018-May-19 02:59N 59°19' E 018°06'0 0.0
2018-May-19 02:29N 59°19' E 018°06'0 0.0
2018-May-19 01:59N 59°19' E 018°06'0 0.0
2018-May-19 01:29N 59°19' E 018°06'0 0.0
2018-May-19 00:59N 59°19' E 018°06'0 0.0
2018-May-19 00:29N 59°19' E 018°06'0 0.0
2018-May-18 23:59N 59°19' E 018°06'0 0.0
2018-May-18 23:29N 59°19' E 018°06'0 0.0
2018-May-18 22:59N 59°19' E 018°06'0 0.0
2018-May-18 22:29N 59°19' E 018°06'0 0.0
2018-May-18 21:59N 59°19' E 018°06'0 0.0
2018-May-18 21:29N 59°19' E 018°06'0 0.0
2018-May-18 20:59N 59°19' E 018°06'0 0.0
2018-May-18 20:29N 59°19' E 018°06'0 0.0
2018-May-18 19:59N 59°19' E 018°06'0 0.0
2018-May-18 19:29N 59°19' E 018°06'0 0.0
2018-May-18 18:59N 59°19' E 018°06'0 0.0
2018-May-18 18:29N 59°19' E 018°06'0 0.0
2018-May-18 17:59N 59°19' E 018°06'0 0.0
2018-May-18 17:29N 59°19' E 018°06'0 0.0
2018-May-18 16:59N 59°19' E 018°06'0 0.0
2018-May-18 16:29N 59°19' E 018°06'0 0.0
2018-May-18 15:59N 59°19' E 018°06'0 0.0
2018-May-18 15:29N 59°19' E 018°06'0 0.0
2018-May-18 14:59N 59°19' E 018°06'0 0.0
2018-May-18 14:29N 59°19' E 018°06'0 0.0
2018-May-18 13:59N 59°19' E 018°06'0 0.0
2018-May-18 13:29N 59°19' E 018°06'0 0.0
2018-May-18 12:59N 59°19' E 018°06'0 0.0
2018-May-18 12:29N 59°19' E 018°06'0 0.0
2018-May-18 11:59N 59°19' E 018°06'0 0.0
2018-May-18 11:29N 59°19' E 018°06'0 0.0
2018-May-18 10:59N 59°19' E 018°06'0 0.0
2018-May-18 10:29N 59°19' E 018°06'0 0.0
2018-May-18 09:59N 59°19' E 018°06'0 0.0
2018-May-18 09:29N 59°19' E 018°06'0 0.0
2018-May-18 08:59N 59°19' E 018°06'0 0.0
2018-May-18 08:29N 59°19' E 018°06'0 0.0
2018-May-18 07:59N 59°19' E 018°06'0 0.0
2018-May-18 07:29N 59°19' E 018°06'0 0.0
2018-May-18 06:59N 59°19' E 018°06'0 0.0
2018-May-18 06:29N 59°19' E 018°06'0 0.0
2018-May-18 05:59N 59°19' E 018°06'0 0.0
2018-May-18 05:29N 59°19' E 018°06'0 0.0
2018-May-18 04:59N 59°19' E 018°06'0 0.0
2018-May-18 04:29N 59°19' E 018°06'0 0.0
2018-May-18 03:59N 59°19' E 018°06'0 0.0
2018-May-18 03:29N 59°19' E 018°06'0 0.0
2018-May-18 02:59N 59°19' E 018°06'0 0.0
2018-May-18 02:29N 59°19' E 018°06'0 0.0
2018-May-18 01:59N 59°19' E 018°06'0 0.0
2018-May-18 01:29N 59°19' E 018°06'0 0.0
2018-May-18 00:59N 59°19' E 018°06'0 0.0
2018-May-18 00:29N 59°19' E 018°06'0 0.0
2018-May-17 23:59N 59°19' E 018°06'0 0.0
2018-May-17 23:29N 59°19' E 018°06'0 0.0
2018-May-17 22:59N 59°19' E 018°06'0 0.0
2018-May-17 22:29N 59°19' E 018°06'0 0.0
2018-May-17 21:59N 59°19' E 018°06'0 0.0
2018-May-17 21:29N 59°19' E 018°06'0 0.0
2018-May-17 20:58N 59°19' E 018°06'0 0.0
2018-May-17 20:28N 59°19' E 018°06'0 0.0
2018-May-17 19:59N 59°19' E 018°06'0 0.0
2018-May-17 19:29N 59°19' E 018°06'0 0.0
2018-May-17 18:59N 59°19' E 018°06'0 0.0
2018-May-17 18:29N 59°19' E 018°06'0 0.0
2018-May-17 17:59N 59°19' E 018°06'0 0.0
2018-May-17 17:29N 59°19' E 018°06'0 0.0
2018-May-17 16:56N 59°19' E 018°06'0 0.0
2018-May-17 16:26N 59°19' E 018°06'0 0.0
2018-May-17 15:56N 59°19' E 018°06'0 0.0
2018-May-17 15:29N 59°19' E 018°06'0 0.0
2018-May-17 14:58N 59°19' E 018°06'0 0.0
2018-May-17 14:26N 59°19' E 018°06'0 0.0
2018-May-17 13:59N 59°19' E 018°06'0 0.0
2018-May-17 13:29N 59°19' E 018°06'0 0.0
2018-May-17 12:56N 59°19' E 018°06'0 0.0
2018-May-17 12:29N 59°19' E 018°06'0 0.0
2018-May-17 11:59N 59°19' E 018°06'0 0.0
2018-May-17 11:26N 59°19' E 018°06'0 0.0
2018-May-17 10:59N 59°19' E 018°06'0 0.0
2018-May-17 10:28N 59°19' E 018°06'0 0.0
2018-May-17 09:46N 59°19' E 018°06'0 0.0
2018-May-17 09:29N 59°19' E 018°06'0 0.0
2018-May-17 08:59N 59°19' E 018°06'0 0.0
2018-May-17 08:20N 59°19' E 018°06'0 0.0
2018-May-17 07:59N 59°19' E 018°06'0 0.0
2018-May-17 07:25N 59°19' E 018°06'0 0.0
2018-May-17 06:56N 59°19' E 018°06'0 0.0
2018-May-17 06:29N 59°19' E 018°06'0 0.0
2018-May-17 05:59N 59°19' E 018°06'0 0.0
2018-May-17 05:29N 59°19' E 018°06'0 0.0
2018-May-17 04:58N 59°19' E 018°06'0 0.0
2018-May-17 04:28N 59°19' E 018°06'0 0.0
2018-May-17 03:58N 59°19' E 018°06'0 0.0
2018-May-17 03:28N 59°19' E 018°06'0 0.0
2018-May-17 02:58N 59°19' E 018°06'0 0.0
2018-May-17 02:29N 59°19' E 018°06'0 0.0
2018-May-17 01:59N 59°19' E 018°06'0 0.0
2018-May-17 01:28N 59°19' E 018°06'0 0.0
2018-May-17 00:58N 59°19' E 018°06'0 0.0
2018-May-17 00:28N 59°19' E 018°06'0 0.0
2018-May-16 23:59N 59°19' E 018°06'0 0.0
2018-May-16 23:28N 59°19' E 018°06'0 0.0
2018-May-16 22:58N 59°19' E 018°06'0 0.0
2018-May-16 22:28N 59°19' E 018°06'0 0.0
2018-May-16 21:58N 59°19' E 018°06'0 0.0
2018-May-16 21:28N 59°19' E 018°06'0 0.0
2018-May-16 20:58N 59°19' E 018°06'0 0.0
2018-May-16 20:28N 59°19' E 018°06'0 0.0
2018-May-16 19:58N 59°19' E 018°06'0 0.0
2018-May-16 19:28N 59°19' E 018°06'0 0.0
2018-May-16 18:58N 59°19' E 018°06'0 0.0
2018-May-16 18:28N 59°19' E 018°06'0 0.0
2018-May-16 17:58N 59°19' E 018°06'0 0.0
2018-May-16 17:28N 59°19' E 018°06'0 0.0
2018-May-16 16:58N 59°19' E 018°06'0 0.0
2018-May-16 16:28N 59°19' E 018°06'0 0.0
2018-May-16 15:58N 59°19' E 018°06'0 0.0
2018-May-16 15:28N 59°19' E 018°06'0 0.0
2018-May-16 14:58N 59°19' E 018°06'0 0.0
2018-May-16 14:28N 59°19' E 018°06'0 0.0
2018-May-16 13:58N 59°19' E 018°06'0 0.0
2018-May-16 13:28N 59°19' E 018°06'0 0.0
2018-May-16 12:58N 59°19' E 018°06'0 0.0
2018-May-16 12:28N 59°19' E 018°06'0 0.0
2018-May-16 11:58N 59°19' E 018°06'0 0.0
2018-May-16 11:28N 59°19' E 018°06'0 0.0
2018-May-16 10:58N 59°19' E 018°06'0 0.0
2018-May-16 10:28N 59°19' E 018°06'0 0.0
2018-May-16 09:58N 59°19' E 018°06'0 0.0
2018-May-16 09:28N 59°19' E 018°06'0 0.0
2018-May-16 08:58N 59°19' E 018°06'0 0.0
2018-May-16 08:28N 59°19' E 018°06'0 0.0
2018-May-16 07:58N 59°19' E 018°06'0 0.0
2018-May-16 07:28N 59°19' E 018°06'0 0.0
2018-May-16 06:58N 59°19' E 018°06'0 0.0
2018-May-16 06:25N 59°19' E 018°06'0 0.0
2018-May-16 05:58N 59°19' E 018°06'0 0.0
2018-May-16 05:28N 59°19' E 018°06'0 0.0
2018-May-16 04:58N 59°19' E 018°06'0 0.0
2018-May-16 04:28N 59°19' E 018°06'0 0.0
2018-May-16 03:58N 59°19' E 018°06'0 0.0
2018-May-16 03:28N 59°19' E 018°06'0 0.0
2018-May-16 02:58N 59°19' E 018°06'0 0.0
2018-May-16 02:28N 59°19' E 018°06'0 0.0
2018-May-16 01:58N 59°19' E 018°06'0 0.0
2018-May-16 01:28N 59°19' E 018°06'0 0.0
2018-May-16 00:58N 59°19' E 018°06'0 0.0
2018-May-16 00:25N 59°19' E 018°06'0 0.0
2018-May-15 23:58N 59°19' E 018°06'0 0.0
2018-May-15 23:28N 59°19' E 018°06'0 0.0
2018-May-15 22:58N 59°19' E 018°06'0 0.0
2018-May-15 22:28N 59°19' E 018°06'0 0.0
2018-May-15 21:58N 59°19' E 018°06'0 0.0
2018-May-15 21:25N 59°19' E 018°06'0 0.0
2018-May-15 20:58N 59°19' E 018°06'0 0.0
2018-May-15 20:28N 59°19' E 018°06'0 0.0
2018-May-15 19:55N 59°19' E 018°06'0 0.0
2018-May-15 19:16N 59°19' E 018°06'0 0.0
2018-May-15 18:58N 59°19' E 018°06'0 0.0
2018-May-15 18:22N 59°19' E 018°06'0 0.0
2018-May-15 17:52N 59°19' E 018°06'0 0.0
2018-May-15 17:25N 59°19' E 018°06'0 0.0
2018-May-15 16:58N 59°19' E 018°06'0 0.0
2018-May-15 16:16N 59°19' E 018°06'0 0.0
2018-May-15 15:55N 59°19' E 018°06'0 0.0
2018-May-15 15:25N 59°19' E 018°06'0 0.0
2018-May-15 14:55N 59°19' E 018°06'0 0.0
2018-May-15 14:28N 59°19' E 018°06'0 0.0
2018-May-15 13:58N 59°19' E 018°06'0 0.0
2018-May-15 13:25N 59°19' E 018°06'0 0.0
2018-May-15 12:58N 59°19' E 018°06'0 0.0
2018-May-15 12:28N 59°19' E 018°06'0 0.0
2018-May-15 11:58N 59°19' E 018°06'0 0.0
2018-May-15 11:25N 59°19' E 018°06'0 0.0
2018-May-15 10:58N 59°19' E 018°06'0 0.0
2018-May-15 10:25N 59°19' E 018°06'0 0.0
2018-May-15 09:58N 59°19' E 018°06'0 0.0
2018-May-15 09:28N 59°19' E 018°06'0 0.0
2018-May-15 08:52N 59°19' E 018°06'0 0.0
2018-May-15 08:28N 59°19' E 018°06'0 0.0
2018-May-15 07:58N 59°19' E 018°06'0 0.0
2018-May-15 07:28N 59°19' E 018°06'0 0.0
2018-May-15 06:58N 59°19' E 018°06'0 0.0
2018-May-15 06:28N 59°19' E 018°06'0 0.0
2018-May-15 05:58N 59°19' E 018°06'0 0.0
2018-May-15 05:28N 59°19' E 018°06'0 0.0
2018-May-15 04:58N 59°19' E 018°06'0 0.0
2018-May-15 04:28N 59°19' E 018°06'0 0.0
2018-May-15 03:58N 59°19' E 018°06'0 0.0
2018-May-15 03:25N 59°19' E 018°06'0 0.0
2018-May-15 02:58N 59°19' E 018°06'0 0.0
2018-May-15 02:28N 59°19' E 018°06'0 0.0
2018-May-15 01:58N 59°19' E 018°06'0 0.0
2018-May-15 01:25N 59°19' E 018°06'0 0.0
2018-May-15 00:58N 59°19' E 018°06'0 0.0
2018-May-15 00:28N 59°19' E 018°06'0 0.0
2018-May-14 23:58N 59°19' E 018°06'0 0.0
2018-May-14 23:25N 59°19' E 018°06'0 0.0
2018-May-14 22:58N 59°19' E 018°06'0 0.0
2018-May-14 22:28N 59°19' E 018°06'0 0.0
2018-May-14 21:58N 59°19' E 018°06'0 0.0
2018-May-14 21:28N 59°19' E 018°06'0 0.0
2018-May-14 20:58N 59°19' E 018°06'0 0.0
2018-May-14 20:28N 59°19' E 018°06'0 0.0
2018-May-14 19:58N 59°19' E 018°06'0 0.0
2018-May-14 19:22N 59°19' E 018°06'0 0.0
2018-May-14 18:58N 59°19' E 018°06'0 0.0
2018-May-14 18:28N 59°19' E 018°06'0 0.0
2018-May-14 17:58N 59°19' E 018°06'0 0.0
2018-May-14 17:28N 59°19' E 018°06'0 0.0
2018-May-14 16:52N 59°19' E 018°06'0 0.0
2018-May-14 16:28N 59°19' E 018°06'0 0.0
2018-May-14 15:58N 59°19' E 018°06'0 0.0
2018-May-14 15:28N 59°19' E 018°06'0 0.0
2018-May-14 14:58N 59°19' E 018°06'0 0.0
2018-May-14 14:28N 59°19' E 018°06'0 0.0
2018-May-14 13:58N 59°19' E 018°06'0 0.0
2018-May-14 13:28N 59°19' E 018°06'0 0.0
2018-May-14 12:58N 59°19' E 018°06'0 0.0
2018-May-14 12:28N 59°19' E 018°06'0 0.0
2018-May-14 11:55N 59°19' E 018°06'0 0.0
2018-May-14 11:28N 59°19' E 018°06'0 0.0
2018-May-14 10:58N 59°19' E 018°06'0 0.0
2018-May-14 10:28N 59°19' E 018°06'0 0.0
2018-May-14 09:58N 59°19' E 018°06'0 0.0
2018-May-14 09:28N 59°19' E 018°06'0 0.0
2018-May-14 08:58N 59°19' E 018°06'0 0.0
2018-May-14 08:28N 59°19' E 018°06'0 0.0
2018-May-14 07:58N 59°19' E 018°06'0 0.0
2018-May-14 07:28N 59°19' E 018°06'0 0.0
2018-May-14 06:58N 59°19' E 018°06'0 0.0
2018-May-14 06:28N 59°19' E 018°06'0 0.0
2018-May-14 05:58N 59°19' E 018°06'0 0.0
2018-May-14 05:28N 59°19' E 018°06'0 0.0
2018-May-14 04:58N 59°19' E 018°06'0 0.0
2018-May-14 04:28N 59°19' E 018°06'0 0.0
2018-May-14 03:58N 59°19' E 018°06'0 0.0
2018-May-14 03:28N 59°19' E 018°06'0 0.0
2018-May-14 02:58N 59°19' E 018°06'0 0.0
2018-May-14 02:28N 59°19' E 018°06'0 0.0
2018-May-14 01:58N 59°19' E 018°06'0 0.0
2018-May-14 01:28N 59°19' E 018°06'0 0.0
2018-May-14 00:58N 59°19' E 018°06'0 0.0
2018-May-14 00:28N 59°19' E 018°06'0 0.0
2018-May-13 23:58N 59°19' E 018°06'0 0.0
2018-May-13 23:28N 59°19' E 018°06'0 0.0
2018-May-13 22:58N 59°19' E 018°06'0 0.0
2018-May-13 22:28N 59°19' E 018°06'0 0.0
2018-May-13 21:58N 59°19' E 018°06'  

Dump ship's entire track history